Time;durP1;ratioP1;P1;durP2;ratioP2;P2;SDS_P1;SDS_P2;PMS_P1;PMS_P2;Temp;Humidity;BMP_temperature;BMP_pressure;BME280_temperature;BME280_humidity;BME280_pressure;Samples;Min_cycle;Max_cycle;Signal;HPM_P1;HPM_P2
2021/01/19 00:00:24;;;;;;;9.35;5.05;;;4.90;99.90;;;;;;4964076;28;20024;-96
2021/01/19 00:02:51;;;;;;;10.95;5.97;;;4.30;99.90;;;;;;4961255;29;20032;-96
2021/01/19 00:05:26;;;;;;;9.95;5.10;;;5.50;99.90;;;;;;4963538;29;20055;-95
2021/01/19 00:07:52;;;;;;;8.27;4.97;;;3.90;99.90;;;;;;4940698;29;20024;-96
2021/01/19 00:10:18;;;;;;;9.63;5.07;;;5.00;99.90;;;;;;4945491;29;20034;-95
2021/01/19 00:12:44;;;;;;;7.57;4.70;;;5.00;99.90;;;;;;4936075;29;20020;-96
2021/01/19 00:15:10;;;;;;;10.30;4.75;;;5.80;99.90;;;;;;4936596;29;20035;-96
2021/01/19 00:17:36;;;;;;;8.10;4.97;;;5.00;99.90;;;;;;4946480;29;20039;-95
2021/01/19 00:20:05;;;;;;;14.27;5.07;;;5.10;99.90;;;;;;4970709;28;20031;-94
2021/01/19 00:22:32;;;;;;;4.28;3.60;;;5.20;99.90;;;;;;4980973;28;20023;-94
2021/01/19 00:25:01;;;;;;;6.93;3.47;;;5.20;99.90;;;;;;4981102;28;20007;-94
2021/01/19 00:27:27;;;;;;;6.85;3.17;;;5.20;99.90;;;;;;4979683;28;20011;-94
2021/01/19 00:29:53;;;;;;;6.38;3.38;;;5.20;99.90;;;;;;4974229;28;20054;-95
2021/01/19 00:32:19;;;;;;;5.28;2.97;;;5.20;99.90;;;;;;4977581;28;20067;-93
2021/01/19 00:34:44;;;;;;;8.02;4.18;;;5.20;99.90;;;;;;4951424;29;20130;-95
2021/01/19 00:37:10;;;;;;;3.13;2.40;;;5.20;99.90;;;;;;4963520;29;20167;-94
2021/01/19 00:39:36;;;;;;;6.25;2.67;;;5.30;99.90;;;;;;4962832;29;20027;-95
2021/01/19 00:42:02;;;;;;;6.40;2.50;;;5.30;99.90;;;;;;4946071;29;20023;-96
2021/01/19 00:44:29;;;;;;;4.55;2.10;;;5.30;99.90;;;;;;4963586;29;20433;-95
2021/01/19 00:47:04;;;;;;;6.38;2.50;;;5.30;99.90;;;;;;4952750;28;20035;-95
2021/01/19 00:49:30;;;;;;;3.65;2.22;;;5.30;99.90;;;;;;4948117;29;20445;-95
2021/01/19 00:51:55;;;;;;;4.65;2.30;;;5.40;99.90;;;;;;4946780;29;20076;-96
2021/01/19 00:54:23;;;;;;;3.45;2.10;;;5.40;99.90;;;;;;4928081;29;20043;-96
2021/01/19 00:57:10;;;;;;;5.25;2.38;;;5.40;99.90;;;;;;4944562;28;20035;-94
2021/01/19 00:59:36;;;;;;;6.28;3.00;;;5.50;99.90;;;;;;4928535;29;20107;-95
2021/01/19 01:02:02;;;;;;;6.03;2.78;;;5.40;99.90;;;;;;4944346;29;20054;-94
2021/01/19 01:04:29;;;;;;;9.45;3.20;;;5.40;99.90;;;;;;4944712;28;20020;-94
2021/01/19 01:06:55;;;;;;;6.82;3.80;;;5.40;99.90;;;;;;4961495;28;20030;-94
2021/01/19 01:09:21;;;;;;;4.63;2.50;;;5.40;99.90;;;;;;4944732;29;20039;-95
2021/01/19 01:11:46;;;;;;;10.30;3.22;;;5.60;99.90;;;;;;4944588;28;20100;-95
2021/01/19 01:14:14;;;;;;;5.32;3.08;;;5.30;99.90;;;;;;4960345;28;20039;-92
2021/01/19 01:16:40;;;;;;;5.90;2.78;;;5.30;99.90;;;;;;4961606;28;20027;-94
2021/01/19 01:19:07;;;;;;;7.00;3.08;;;5.40;99.90;;;;;;4956522;29;20035;-95
2021/01/19 01:21:37;;;;;;;8.52;3.20;;;5.90;99.90;;;;;;4946941;29;20047;-95
2021/01/19 01:24:08;;;;;;;5.60;2.80;;;6.10;99.90;;;;;;4945630;29;20027;-95
2021/01/19 01:26:34;;;;;;;4.38;2.80;;;5.30;99.90;;;;;;4945883;29;20027;-94
2021/01/19 01:29:01;;;;;;;6.97;3.42;;;5.30;99.90;;;;;;4961913;29;20024;-95
2021/01/19 01:31:27;;;;;;;5.38;3.35;;;5.30;99.90;;;;;;4962260;29;20025;-95
2021/01/19 01:33:52;;;;;;;7.47;2.92;;;5.20;99.90;;;;;;4965874;28;20014;-96
2021/01/19 01:36:18;;;;;;;8.38;3.95;;;5.30;99.90;;;;;;4949682;29;20067;-96
2021/01/19 01:38:44;;;;;;;4.38;2.97;;;5.30;99.90;;;;;;4946524;29;20098;-95
2021/01/19 01:41:18;;;;;;;9.20;4.15;;;5.30;99.90;;;;;;4951919;29;20035;-96
2021/01/19 01:43:52;;;;;;;6.80;3.00;;;5.30;99.90;;;;;;4952466;29;20066;-96
2021/01/19 01:46:20;;;;;;;8.73;3.60;;;5.30;99.90;;;;;;4945800;29;20063;-96
2021/01/19 01:48:48;;;;;;;5.88;2.88;;;5.40;99.90;;;;;;4949838;29;20209;-96
2021/01/19 01:51:26;;;;;;;6.65;2.95;;;5.30;99.90;;;;;;4968180;28;20094;-96
2021/01/19 01:53:52;;;;;;;4.63;2.60;;;5.30;99.90;;;;;;4945587;29;20062;-96
2021/01/19 01:56:19;;;;;;;6.00;3.17;;;6.10;99.90;;;;;;4946192;29;20099;-96
2021/01/19 01:58:47;;;;;;;6.65;4.00;;;5.40;99.90;;;;;;4943068;29;20052;-95
2021/01/19 02:01:12;;;;;;;7.75;3.17;;;5.40;99.90;;;;;;4931408;29;20452;-94
2021/01/19 02:03:38;;;;;;;4.50;3.08;;;5.30;99.90;;;;;;4960567;29;20038;-95
2021/01/19 02:06:05;;;;;;;7.57;3.22;;;5.30;99.90;;;;;;4967567;29;20095;-93
2021/01/19 02:08:48;;;;;;;4.13;3.30;;;5.30;99.90;;;;;;4971384;29;20023;-91
2021/01/19 02:11:53;;;;;;;7.25;3.33;;;5.30;99.90;;;;;;4976868;28;20490;-91
2021/01/19 02:14:41;;;;;;;7.45;4.13;;;5.40;99.90;;;;;;4973483;29;20025;-93
2021/01/19 02:17:38;;;;;;;5.90;2.88;;;5.30;99.90;;;;;;4941672;29;20037;-95
2021/01/19 02:20:21;;;;;;;4.40;2.85;;;5.40;99.90;;;;;;4962006;29;20122;-95
2021/01/19 02:23:28;;;;;;;4.85;2.75;;;5.30;99.90;;;;;;4958265;29;20031;-96
2021/01/19 02:26:00;;;;;;;9.43;2.60;;;5.30;99.90;;;;;;4905614;29;20472;-96
2021/01/19 02:28:49;;;;;;;7.28;3.38;;;5.20;99.90;;;;;;4941509;29;20063;-95
2021/01/19 02:31:45;;;;;;;8.15;2.50;;;5.20;99.90;;;;;;4950206;29;20119;-95
2021/01/19 02:34:41;;;;;;;9.80;2.85;;;5.10;99.90;;;;;;4944495;29;20400;-96
2021/01/19 02:37:17;;;;;;;5.72;2.75;;;5.10;99.90;;;;;;4943290;29;20058;-96
2021/01/19 02:39:53;;;;;;;8.10;2.90;;;5.00;99.90;;;;;;4945652;29;20105;-94
2021/01/19 02:42:30;;;;;;;7.05;2.60;;;5.00;99.90;;;;;;4938036;29;20051;-93
2021/01/19 02:44:57;;;;;;;4.55;2.65;;;4.90;99.90;;;;;;4936573;29;20468;-93
2021/01/19 02:47:23;;;;;;;7.28;2.97;;;4.80;99.90;;;;;;4942142;29;20287;-94
2021/01/19 02:50:09;;;;;;;6.70;3.35;;;4.80;99.90;;;;;;4963613;28;20033;-93
2021/01/19 02:52:39;;;;;;;6.28;2.53;;;4.70;99.90;;;;;;4961579;29;20158;-93
2021/01/19 02:55:08;;;;;;;8.23;3.22;;;4.70;99.90;;;;;;4964743;28;20007;-92
2021/01/19 02:57:36;;;;;;;5.03;2.58;;;4.70;99.90;;;;;;4958615;28;20019;-93
2021/01/19 03:00:34;;;;;;;7.82;2.50;;;4.70;99.90;;;;;;4964688;29;20111;-92
2021/01/19 03:03:01;;;;;;;10.35;2.85;;;4.70;99.90;;;;;;4879540;29;20033;-93
2021/01/19 03:05:32;;;;;;;3.53;2.17;;;5.60;99.90;;;;;;4897542;29;20080;-93
2021/01/19 03:08:06;;;;;;;6.33;2.47;;;4.60;99.90;;;;;;4860623;29;20029;-93
2021/01/19 03:10:37;;;;;;;8.05;2.45;;;4.60;99.90;;;;;;4879221;29;20277;-92
2021/01/19 03:13:04;;;;;;;;;;;4.60;99.90;;;;;;4898031;29;20332;-93
2021/01/19 03:15:29;;;;;;;7.80;2.00;;;4.60;99.90;;;;;;4874978;29;19915;-93
2021/01/19 03:17:57;;;;;;;6.18;2.40;;;4.60;99.90;;;;;;4890689;29;20086;-94
2021/01/19 03:20:25;;;;;;;9.07;2.45;;;3.60;99.90;;;;;;4876724;29;20037;-95
2021/01/19 03:22:53;;;;;;;8.20;2.95;;;4.60;99.90;;;;;;4857725;29;20026;-96
2021/01/19 03:25:19;;;;;;;11.32;3.35;;;4.70;99.90;;;;;;4902358;29;20414;-96
2021/01/19 03:27:47;;;;;;;5.35;2.15;;;4.60;99.90;;;;;;4892366;29;20032;-95
2021/01/19 03:30:13;;;;;;;8.15;4.00;;;4.60;99.90;;;;;;4901261;29;20037;-96
2021/01/19 03:32:39;;;;;;;6.03;2.40;;;4.60;99.90;;;;;;4875248;29;20036;-96
2021/01/19 03:35:10;;;;;;;4.95;2.47;;;4.60;99.90;;;;;;4963365;23;20143;-95
2021/01/19 03:37:54;;;;;;;;;;;;;;;;;;;;;
2021/01/19 03:46:37;;;;;;;9.73;2.60;;;4.60;99.90;;;;;;5722305;23;20063;-94
2021/01/19 03:49:04;;;;;;;9.20;4.00;;;4.60;99.90;;;;;;4948876;29;20030;-93
2021/01/19 03:51:30;;;;;;;9.75;3.88;;;4.60;99.90;;;;;;4978045;28;20079;-93
2021/01/19 03:53:57;;;;;;;10.88;2.50;;;4.60;99.90;;;;;;4965272;28;20023;-93
2021/01/19 03:56:23;;;;;;;9.02;3.00;;;4.70;99.90;;;;;;4968431;28;20015;-94
2021/01/19 03:58:50;;;;;;;7.07;4.10;;;4.70;99.90;;;;;;5000697;28;20030;-96
2021/01/19 04:01:16;;;;;;;6.90;2.67;;;4.70;99.90;;;;;;4963305;29;20377;-96
2021/01/19 04:03:44;;;;;;;6.53;2.45;;;4.70;99.90;;;;;;4959305;29;20038;-95
2021/01/19 04:06:11;;;;;;;12.07;3.17;;;4.80;99.90;;;;;;4960781;28;20035;-95
2021/01/19 04:08:41;;;;;;;4.57;2.40;;;4.80;99.90;;;;;;4964943;28;20012;-96
2021/01/19 04:11:07;;;;;;;7.00;2.58;;;4.90;99.90;;;;;;4949629;28;20112;-96
2021/01/19 04:13:35;;;;;;;7.32;2.60;;;4.90;99.90;;;;;;4980958;28;20066;-95
2021/01/19 04:16:01;;;;;;;7.78;3.20;;;4.80;99.90;;;;;;4961935;29;20050;-96
2021/01/19 04:18:28;;;;;;;6.90;2.80;;;4.80;99.90;;;;;;4916347;29;20041;-95
2021/01/19 04:20:53;;;;;;;10.55;3.45;;;4.80;99.90;;;;;;4907243;29;20052;-93
2021/01/19 04:23:19;;;;;;;7.63;2.97;;;4.80;99.90;;;;;;4923184;29;20049;-95
2021/01/19 04:25:46;;;;;;;7.82;2.65;;;4.80;99.90;;;;;;4922675;29;20029;-95
2021/01/19 04:28:13;;;;;;;4.53;2.47;;;4.80;99.90;;;;;;4898745;29;20044;-96
2021/01/19 04:30:40;;;;;;;8.40;3.00;;;4.90;99.90;;;;;;4892152;29;20028;-94
2021/01/19 04:33:06;;;;;;;6.82;2.63;;;4.80;99.90;;;;;;4890214;29;20074;-96
2021/01/19 04:35:31;;;;;;;6.15;3.00;;;4.90;99.90;;;;;;4889692;29;20029;-96
2021/01/19 04:37:57;;;;;;;7.47;3.30;;;4.90;99.90;;;;;;4906639;29;20048;-95
2021/01/19 04:40:29;;;;;;;7.13;2.92;;;4.90;99.90;;;;;;4850264;29;20034;-95
2021/01/19 04:42:55;;;;;;;7.72;3.13;;;4.90;99.90;;;;;;4823822;29;20031;-93
2021/01/19 04:45:30;;;;;;;10.20;3.72;;;4.90;99.90;;;;;;4833198;29;20042;-96
2021/01/19 04:47:56;;;;;;;11.10;2.72;;;5.00;99.90;;;;;;4835428;29;20050;-96
2021/01/19 04:50:23;;;;;;;10.20;3.13;;;4.90;99.90;;;;;;4862354;29;20041;-93
2021/01/19 04:52:53;;;;;;;6.68;3.10;;;4.90;99.90;;;;;;4846378;29;20054;-96
2021/01/19 04:55:34;;;;;;;7.97;2.70;;;4.90;99.90;;;;;;4860073;29;20572;-96
2021/01/19 04:58:07;;;;;;;6.97;2.85;;;4.90;99.90;;;;;;4852043;29;20041;-96
2021/01/19 05:00:36;;;;;;;10.85;3.80;;;4.80;99.90;;;;;;4866819;29;20053;-96
2021/01/19 05:03:03;;;;;;;8.73;2.90;;;4.80;99.90;;;;;;4869316;29;20124;-96
2021/01/19 05:06:00;;;;;;;6.85;3.20;;;4.80;99.90;;;;;;4872022;29;20110;-96
2021/01/19 05:08:42;;;;;;;10.82;3.47;;;4.80;99.90;;;;;;4810440;29;20158;-93
2021/01/19 05:11:20;;;;;;;4.75;2.22;;;4.70;99.90;;;;;;4819254;29;20034;-96
2021/01/19 05:13:50;;;;;;;10.18;4.28;;;4.80;99.90;;;;;;5228129;23;20056;-89
2021/01/19 05:18:58;;;;;;;9.63;3.47;;;4.80;99.90;;;;;;5315908;23;20054;-96
2021/01/19 05:21:24;;;;;;;7.25;2.97;;;4.80;99.90;;;;;;5068655;23;20107;-96
2021/01/19 05:26:25;;;;;;;11.68;3.70;;;4.80;99.90;;;;;;5161336;23;20089;-92
2021/01/19 05:28:54;;;;;;;7.07;3.63;;;4.70;99.90;;;;;;5146903;23;20297;-94
2021/01/19 05:31:26;;;;;;;7.25;3.00;;;4.70;99.90;;;;;;5165669;23;20084;-91
2021/01/19 05:34:14;;;;;;;;;;;4.60;99.90;;;;;;4958836;29;20092;-95
2021/01/19 05:36:46;;;;;;;6.35;2.60;;;4.60;99.90;;;;;;4901536;29;19899;-95
2021/01/19 05:39:20;;;;;;;11.80;2.83;;;4.60;99.90;;;;;;4998431;23;20031;-95
2021/01/19 05:41:47;;;;;;;6.85;2.60;;;4.70;99.90;;;;;;4948709;29;20027;-95
2021/01/19 05:44:17;;;;;;;5.43;2.50;;;4.70;99.90;;;;;;4962924;28;20041;-96
2021/01/19 05:47:02;;;;;;;8.43;2.42;;;4.70;99.90;;;;;;4976500;29;20491;-95
2021/01/19 05:49:43;;;;;;;5.18;2.40;;;4.90;99.90;;;;;;4975894;29;20035;-93
2021/01/19 05:52:12;;;;;;;5.78;2.53;;;4.90;99.90;;;;;;4952364;29;20041;-94
2021/01/19 05:54:45;;;;;;;8.23;2.65;;;4.90;99.90;;;;;;4943474;29;20049;-94
2021/01/19 05:57:15;;;;;;;10.10;3.15;;;4.90;99.90;;;;;;4941601;29;20539;-95
2021/01/19 06:00:01;;;;;;;8.55;2.72;;;5.00;99.90;;;;;;4956633;29;20034;-96
2021/01/19 06:02:44;;;;;;;4.57;2.22;;;4.90;99.90;;;;;;4930896;29;20031;-96
2021/01/19 06:11:24;;;;;;;6.95;2.58;;;5.00;99.90;;;;;;4879158;29;20145;-96
2021/01/19 06:13:53;;;;;;;7.05;1.95;;;5.00;99.90;;;;;;4901756;29;20032;-95
2021/01/19 06:16:34;;;;;;;4.35;2.10;;;5.00;99.90;;;;;;4902256;29;20025;-94
2021/01/19 06:19:02;;;;;;;5.18;1.55;;;4.90;99.90;;;;;;4912872;29;20048;-96
2021/01/19 06:21:30;;;;;;;4.55;1.85;;;4.90;99.90;;;;;;4893532;29;20040;-93
2021/01/19 06:23:59;;;;;;;5.65;2.30;;;5.00;99.90;;;;;;4909955;29;20036;-95
2021/01/19 06:26:24;;;;;;;7.65;1.92;;;5.00;99.90;;;;;;4904530;29;20020;-94
2021/01/19 06:28:50;;;;;;;5.25;1.67;;;5.00;99.90;;;;;;4920964;29;20060;-96
2021/01/19 06:31:22;;;;;;;3.15;1.23;;;5.00;99.90;;;;;;4920550;29;20045;-95
2021/01/19 06:33:50;;;;;;;3.67;1.70;;;5.00;99.90;;;;;;4919517;29;20052;-95
2021/01/19 06:36:17;;;;;;;4.95;1.65;;;5.00;99.90;;;;;;4897456;29;20187;-93
2021/01/19 06:38:45;;;;;;;4.90;2.20;;;4.90;99.90;;;;;;4897995;29;20113;-94
2021/01/19 06:41:18;;;;;;;3.97;1.73;;;5.00;99.90;;;;;;4909459;29;20059;-96
2021/01/19 06:43:54;;;;;;;6.45;2.17;;;5.00;99.90;;;;;;4894653;29;20108;-96
2021/01/19 06:46:23;;;;;;;3.25;1.58;;;5.00;99.90;;;;;;4903984;29;20032;-96
2021/01/19 06:48:52;;;;;;;2.05;1.52;;;5.00;99.90;;;;;;4955935;28;20056;-95
2021/01/19 06:51:17;;;;;;;5.43;2.72;;;5.00;99.90;;;;;;4949062;28;20036;-96
2021/01/19 06:53:55;;;;;;;4.75;1.40;;;5.10;99.90;;;;;;4952695;28;20083;-96
2021/01/19 06:56:29;;;;;;;2.95;1.98;;;5.00;99.90;;;;;;5229563;23;21428;-91
2021/01/19 06:59:04;;;;;;;4.97;1.83;;;5.10;99.90;;;;;;4957902;29;20067;-95
2021/01/19 07:01:30;;;;;;;7.72;3.47;;;5.10;99.90;;;;;;4951941;29;20042;-96
2021/01/19 07:04:24;;;;;;;2.88;1.67;;;5.10;99.90;;;;;;4939853;28;20151;-95
2021/01/19 07:07:17;;;;;;;4.20;1.88;;;5.20;99.90;;;;;;4940306;28;20078;-96
2021/01/19 07:10:04;;;;;;;3.25;1.33;;;5.10;99.90;;;;;;4937367;29;20035;-93
2021/01/19 07:12:59;;;;;;;4.15;2.15;;;5.10;99.90;;;;;;4931554;29;20048;-90
2021/01/19 07:15:56;;;;;;;6.00;2.60;;;5.10;99.90;;;;;;4938081;29;20013;-91
2021/01/19 07:18:42;;;;;;;2.22;1.58;;;5.20;99.90;;;;;;4937931;29;20064;-92
2021/01/19 07:21:12;;;;;;;2.03;1.27;;;5.10;99.90;;;;;;4926655;29;20032;-92
2021/01/19 07:24:16;;;;;;;2.65;1.88;;;5.10;99.90;;;;;;4929696;29;20016;-94
2021/01/19 07:26:45;;;;;;;5.38;2.72;;;5.10;99.90;;;;;;4850380;29;20118;-94
2021/01/19 07:29:17;;;;;;;2.22;1.42;;;5.10;99.90;;;;;;4876678;29;20021;-95
2021/01/19 07:31:43;;;;;;;4.63;1.90;;;5.10;99.90;;;;;;4857738;29;20081;-93
2021/01/19 07:34:10;;;;;;;3.28;1.45;;;5.10;99.90;;;;;;4865672;29;20033;-93
2021/01/19 07:36:38;;;;;;;4.90;2.35;;;5.10;99.90;;;;;;4867166;29;20165;-95
2021/01/19 07:39:15;;;;;;;2.97;1.77;;;5.10;99.90;;;;;;4871576;29;20055;-94
2021/01/19 07:41:43;;;;;;;5.63;1.70;;;5.10;99.90;;;;;;4870536;29;20108;-95
2021/01/19 07:44:24;;;;;;;4.40;2.10;;;5.00;99.90;;;;;;4856913;29;20038;-96
2021/01/19 07:46:50;;;;;;;4.57;2.42;;;5.10;99.90;;;;;;4882353;29;20041;-96
2021/01/19 07:49:16;;;;;;;6.35;2.58;;;5.00;99.90;;;;;;5136950;23;20199;-94
2021/01/19 07:51:47;;;;;;;4.15;2.47;;;5.10;99.90;;;;;;4909744;29;20037;-95
2021/01/19 07:54:32;;;;;;;5.95;2.58;;;5.10;99.90;;;;;;4927772;29;20036;-94
2021/01/19 07:57:35;;;;;;;6.05;2.50;;;5.10;99.90;;;;;;4918031;29;20064;-96
2021/01/19 08:00:03;;;;;;;10.48;3.30;;;5.10;99.90;;;;;;4927260;29;20047;-94
2021/01/19 08:02:29;;;;;;;6.00;3.53;;;5.00;99.90;;;;;;4927889;29;20032;-96
2021/01/19 08:05:09;;;;;;;5.70;3.03;;;5.20;99.90;;;;;;4917254;29;20082;-95
2021/01/19 08:07:45;;;;;;;4.65;2.22;;;5.10;99.90;;;;;;4937442;29;20024;-95
2021/01/19 08:10:40;;;;;;;7.97;4.20;;;5.00;99.90;;;;;;4921933;29;20032;-92
2021/01/19 08:13:17;;;;;;;5.15;2.92;;;5.10;99.90;;;;;;4896557;29;20029;-92
2021/01/19 08:19:13;;;;;;;10.02;2.47;;;5.20;99.90;;;;;;4883003;29;20086;-83
2021/01/19 08:21:49;;;;;;;6.63;2.35;;;5.30;99.90;;;;;;4889279;29;20033;-83
2021/01/19 08:24:15;;;;;;;6.05;2.83;;;5.30;99.90;;;;;;4919602;29;20164;-83
2021/01/19 08:27:13;;;;;;;7.72;2.85;;;5.40;99.90;;;;;;4925584;29;20042;-94
2021/01/19 08:53:55;;;;;;;7.72;3.65;;;5.10;99.90;;;;;;5991604;23;20168;31
2021/01/19 08:56:31;;;;;;;7.63;3.70;;;5.10;99.90;;;;;;4902761;29;20096;-95
2021/01/19 08:59:19;;;;;;;5.70;3.03;;;5.20;99.90;;;;;;4890902;29;20045;-95
2021/01/19 09:43:15;;;;;;;2.35;2.08;;;4.90;99.90;;;;;;5127992;23;20058;-93
2021/01/19 09:45:45;;;;;;;4.22;3.05;;;5.00;99.90;;;;;;4943986;29;20052;-95
2021/01/19 09:48:22;;;;;;;4.20;2.85;;;5.00;99.90;;;;;;4926803;29;20035;-94
2021/01/19 09:56:38;;;;;;;5.68;2.95;;;5.00;99.90;;;;;;4957129;28;20060;-94
2021/01/19 10:01:59;;;;;;;;;;;;;;;;;;;;;
2021/01/19 10:04:31;;;;;;;7.63;3.22;;;5.10;99.90;;;;;;4964658;28;20079;-95
2021/01/19 10:07:13;;;;;;;3.80;1.95;;;5.10;99.90;;;;;;4935813;29;20035;-96
2021/01/19 10:10:14;;;;;;;2.05;1.67;;;5.20;99.90;;;;;;4955391;28;20095;-95
2021/01/19 10:15:31;;;;;;;;;;;;;;;;;;;;;
2021/01/19 10:18:03;;;;;;;1.92;1.23;;;5.20;99.90;;;;;;5224549;23;20045;-96
2021/01/19 10:20:41;;;;;;;3.20;1.30;;;5.30;99.90;;;;;;4956598;28;20051;-96
2021/01/19 10:26:21;;;;;;;1.50;1.10;;;5.40;99.90;;;;;;5244224;23;20051;-96
2021/01/19 10:31:45;;;;;;;2.85;1.20;;;5.40;99.90;;;;;;4993030;23;20055;-93
2021/01/19 10:34:14;;;;;;;0.75;0.75;;;5.50;99.90;;;;;;4943440;29;20046;-92
2021/01/19 10:37:12;;;;;;;;;;;;;;;;;;;;;
2021/01/19 10:40:03;;;;;;;;;;;;;;;;;;;;;
2021/01/19 10:42:43;;;;;;;10.25;4.05;;;5.70;99.90;;;;;;4961663;29;20091;-93
2021/01/19 10:45:53;;;;;;;5.82;1.88;;;5.70;99.90;;;;;;4952188;29;20031;-95
2021/01/19 10:48:24;;;;;;;4.95;1.42;;;5.60;99.90;;;;;;4952549;28;20035;-96
2021/01/19 10:50:53;;;;;;;;;;;5.70;99.90;;;;;;4932814;29;20083;-96
2021/01/19 10:53:55;;;;;;;1.65;1.30;;;5.80;99.90;;;;;;4932506;29;19911;-96
2021/01/19 10:56:30;;;;;;;1.23;0.90;;;5.80;99.90;;;;;;4891482;29;20037;-96
2021/01/19 10:59:11;;;;;;;2.15;1.25;;;5.80;99.90;;;;;;4885719;29;20044;-96
2021/01/19 11:01:47;;;;;;;1.30;0.77;;;5.80;99.90;;;;;;4877950;29;20108;-95
2021/01/19 11:04:21;;;;;;;1.10;0.90;;;5.90;99.90;;;;;;4874275;29;20155;-94
2021/01/19 11:09:54;;;;;;;2.33;1.00;;;5.90;99.90;;;;;;4887171;29;20108;-93
2021/01/19 11:12:20;;;;;;;0.82;0.73;;;5.90;99.90;;;;;;4867043;29;20058;-94
2021/01/19 11:14:47;;;;;;;1.70;1.02;;;6.00;99.90;;;;;;4881924;29;20115;-94
2021/01/19 11:17:25;;;;;;;3.85;1.70;;;6.00;99.90;;;;;;4876561;29;20083;-93
2021/01/19 11:19:52;;;;;;;2.53;1.60;;;6.00;99.90;;;;;;4868158;29;20058;-94
2021/01/19 11:22:19;;;;;;;5.30;2.30;;;6.10;99.90;;;;;;4911519;29;20070;-93
2021/01/19 11:25:04;;;;;;;1.92;1.45;;;6.10;99.90;;;;;;4911715;29;20031;-93
2021/01/19 11:27:36;;;;;;;2.50;1.55;;;6.30;99.90;;;;;;4921350;28;20042;-93
2021/01/19 11:30:55;;;;;;;;;;;;;;;;;;;;;
2021/01/19 11:33:21;;;;;;;3.13;1.00;;;6.30;99.90;;;;;;4948757;29;20056;-95
2021/01/19 11:35:52;;;;;;;2.88;1.42;;;6.50;99.90;;;;;;4968679;29;20026;-95
2021/01/19 11:38:24;;;;;;;4.25;1.77;;;6.70;99.90;;;;;;4983576;28;20042;-96
2021/01/19 11:40:50;;;;;;;;;;;6.90;99.90;;;;;;4946410;29;20043;-92
2021/01/19 11:43:16;;;;;;;1.38;1.10;;;7.20;99.90;;;;;;4940893;29;19916;-95
2021/01/19 11:46:04;;;;;;;;;;;;;;;;;;;;;
2021/01/19 11:48:41;;;;;;;1.38;1.10;;;7.50;99.90;;;;;;5070292;23;20071;-96
2021/01/19 11:51:24;;;;;;;2.42;1.15;;;7.60;99.90;;;;;;5632953;23;20022;-93
2021/01/19 12:13:33;;;;;;;;;;;;;;;;;;;;;
2021/01/19 13:48:38;;;;;;;1.67;1.10;;;8.90;99.90;;;;;;5381916;23;20218;-94
2021/01/19 13:51:12;;;;;;;1.67;1.20;;;8.80;99.90;;;;;;4962572;23;20059;-90
2021/01/19 13:53:42;;;;;;;3.75;1.60;;;8.90;99.90;;;;;;4906376;29;20032;-93
2021/01/19 13:56:08;;;;;;;2.37;1.57;;;8.90;99.90;;;;;;5051098;23;20086;-95
2021/01/19 13:59:45;;;;;;;2.33;1.15;;;8.90;99.90;;;;;;4964223;29;20050;-94
2021/01/19 14:01:59;;;;;;;2.03;1.20;;;9.00;99.90;;;;;;4945362;29;20458;-93
2021/01/19 14:04:55;;;;;;;1.50;1.23;;;9.00;99.90;;;;;;4931171;29;20466;-95
2021/01/19 15:35:03;;;;;;;4.10;2.10;;;8.40;99.90;;;;;;5179286;23;20109;31
2021/01/19 15:47:12;;;;;;;3.38;2.35;;;8.40;99.90;;;;;;4977558;28;20089;-94
2021/01/19 15:52:49;;;;;;;7.00;2.70;;;8.40;99.90;;;;;;4962360;29;20380;-92
2021/01/19 15:55:28;;;;;;;6.72;3.60;;;8.50;99.90;;;;;;4938871;28;20035;-93
2021/01/19 15:59:25;;;;;;;;;;;;;;;;;;;;;
2021/01/19 16:02:23;;;;;;;6.32;3.05;;;8.40;99.90;;;;;;4880627;29;20031;-95
2021/01/19 16:05:22;;;;;;;10.38;3.95;;;8.50;99.90;;;;;;4879797;29;20491;-95
2021/01/19 16:07:52;;;;;;;5.17;2.17;;;8.50;99.90;;;;;;4846459;29;20025;-91
2021/01/19 16:11:05;;;;;;;3.47;2.40;;;8.50;99.90;;;;;;4875960;29;20037;-93
2021/01/19 16:13:40;;;;;;;5.85;2.88;;;8.50;99.90;;;;;;4848888;29;20040;-92
2021/01/19 16:16:26;;;;;;;4.80;2.92;;;8.50;99.90;;;;;;4896927;29;20098;-93
2021/01/19 16:19:22;;;;;;;5.40;3.25;;;8.60;99.90;;;;;;4894860;29;20053;-95
2021/01/19 16:30:51;;;;;;;5.65;2.65;;;8.60;99.90;;;;;;5698706;23;20770;-95
2021/01/19 16:33:18;;;;;;;3.22;2.35;;;8.50;99.90;;;;;;4973182;23;20078;-94
2021/01/19 16:35:52;;;;;;;4.30;2.40;;;8.50;99.90;;;;;;4942864;29;20015;-93
2021/01/19 16:40:55;;;;;;;7.18;2.30;;;8.60;99.90;;;;;;4978635;28;20066;-92
2021/01/19 16:43:25;;;;;;;4.20;1.98;;;8.60;99.90;;;;;;4926609;29;20040;-92
2021/01/19 16:56:20;;;;;;;4.18;2.15;;;8.60;99.90;;;;;;5176480;23;20055;-95
2021/01/19 16:59:24;;;;;;;8.20;4.15;;;8.50;99.90;;;;;;4955899;29;20042;-94
2021/01/19 17:05:01;;;;;;;4.55;2.83;;;8.40;99.90;;;;;;4895917;29;20132;-94
2021/01/19 17:07:36;;;;;;;5.18;2.50;;;8.40;99.90;;;;;;4896989;29;20044;-94
2021/01/19 17:10:04;;;;;;;6.10;2.60;;;8.40;99.90;;;;;;4861532;29;20048;-92
2021/01/19 17:12:33;;;;;;;3.30;2.42;;;8.30;99.90;;;;;;4906953;29;20029;-92
2021/01/19 17:14:59;;;;;;;4.90;2.70;;;8.30;99.90;;;;;;4897485;29;20033;-94
2021/01/19 17:17:26;;;;;;;4.50;3.13;;;8.20;99.90;;;;;;4901541;29;20040;-91
2021/01/19 17:20:04;;;;;;;4.10;3.20;;;8.00;99.90;;;;;;4901740;29;20036;-93
2021/01/19 17:22:30;;;;;;;4.57;3.20;;;8.10;99.90;;;;;;4903393;29;20045;-91
2021/01/19 17:24:56;;;;;;;7.15;3.60;;;8.10;99.90;;;;;;4878656;29;20024;-92
2021/01/19 17:27:25;;;;;;;4.57;2.88;;;8.00;99.90;;;;;;4894167;29;20040;-93
2021/01/19 17:29:52;;;;;;;5.32;3.28;;;7.90;99.90;;;;;;5013269;23;20063;-94
2021/01/19 17:32:21;;;;;;;3.60;3.17;;;7.90;99.90;;;;;;4941812;29;20449;-93
2021/01/19 17:37:34;;;;;;;4.15;3.45;;;7.90;99.90;;;;;;5634680;23;19975;-95
2021/01/19 21:27:15;;;;;;;10.05;3.97;;;5.50;99.90;;;;;;5517803;23;20032;-96
2021/01/19 21:32:22;;;;;;;12.25;5.97;;;5.50;99.90;;;;;;5024733;23;19910;-95
2021/01/19 21:35:01;;;;;;;;;;;;;;;;;;;;;
2021/01/19 21:40:17;;;;;;;9.65;4.47;;;5.40;99.90;;;;;;5272079;23;20941;-93
2021/01/19 21:45:18;;;;;;;10.10;4.80;;;5.20;99.90;;;;;;4983267;23;20039;-95
2021/01/19 21:47:51;;;;;;;11.85;4.10;;;5.20;99.90;;;;;;4977182;28;20046;-94
2021/01/19 21:50:17;;;;;;;10.98;4.75;;;5.20;99.90;;;;;;4940931;29;20024;-93
2021/01/19 21:53:30;;;;;;;11.18;4.95;;;5.20;99.90;;;;;;4967552;29;20015;-95
2021/01/19 21:56:00;;;;;;;9.20;4.78;;;5.10;99.90;;;;;;4918434;29;20032;-96
2021/01/19 21:58:29;;;;;;;10.02;5.10;;;4.70;99.90;;;;;;4908516;29;20044;-96
2021/01/19 22:00:59;;;;;;;10.02;4.57;;;5.80;99.90;;;;;;4932958;29;20088;-96
2021/01/19 22:03:33;;;;;;;12.02;5.65;;;5.10;99.90;;;;;;4944826;29;20020;-96
2021/01/19 22:06:02;;;;;;;8.43;5.10;;;5.10;99.90;;;;;;4905773;29;20064;-96
2021/01/19 22:11:04;;;;;;;8.95;4.45;;;5.00;99.90;;;;;;5223073;23;20094;-94
2021/01/19 22:13:30;;;;;;;12.00;5.03;;;5.00;99.90;;;;;;4957344;28;20015;-93
2021/01/19 22:16:01;;;;;;;10.60;5.00;;;6.10;99.90;;;;;;4957972;28;20024;-94
2021/01/19 22:21:26;;;;;;;10.57;5.07;;;5.00;99.90;;;;;;4975578;28;20039;-95
2021/01/19 22:23:56;;;;;;;10.10;5.03;;;4.90;99.90;;;;;;5159649;23;20044;-94
2021/01/19 22:26:22;;;;;;;10.63;4.68;;;4.80;99.90;;;;;;5311510;23;20052;-96
2021/01/19 22:31:26;;;;;;;7.85;4.78;;;4.90;99.90;;;;;;5310864;23;20372;-85
2021/01/19 22:34:23;;;;;;;9.77;5.45;;;4.40;99.90;;;;;;4948972;29;20043;-94
2021/01/19 22:36:49;;;;;;;9.43;4.90;;;5.00;99.90;;;;;;5103482;23;20119;-96
2021/01/19 22:56:38;;;;;;;8.07;3.58;;;5.30;99.90;;;;;;4956788;26;20059;-94
2021/01/19 22:59:05;;;;;;;7.95;4.35;;;5.50;99.90;;;;;;4966730;29;20039;-92
2021/01/19 23:01:31;;;;;;;7.68;3.67;;;5.40;99.90;;;;;;4935296;29;20065;-93
2021/01/19 23:04:02;;;;;;;5.97;3.20;;;5.40;99.90;;;;;;4931829;29;20162;-94
2021/01/19 23:22:52;;;;;;;7.93;3.38;;;5.60;99.90;;;;;;4982863;28;20042;-95
2021/01/19 23:25:19;;;;;;;8.32;4.07;;;5.60;99.90;;;;;;4946730;29;20059;-96
2021/01/19 23:28:00;;;;;;;8.32;3.28;;;5.60;99.90;;;;;;4957946;29;20031;-96
2021/01/19 23:30:26;;;;;;;11.07;3.85;;;5.70;99.90;;;;;;4987257;23;20043;-93
2021/01/19 23:32:55;;;;;;;5.93;2.90;;;6.40;99.90;;;;;;4976245;23;20372;-96
2021/01/19 23:35:36;;;;;;;6.10;2.80;;;5.80;99.90;;;;;;5120091;23;20368;-96
2021/01/19 23:41:18;;;;;;;4.32;2.60;;;5.80;99.90;;;;;;5164542;23;20057;-95
2021/01/19 23:43:50;;;;;;;8.13;2.40;;;5.90;99.90;;;;;;5090030;23;20051;-95
2021/01/19 23:46:15;;;;;;;;;;;5.80;99.90;;;;;;4958936;29;20059;-96
2021/01/19 23:48:41;;;;;;;3.28;2.30;;;5.90;99.90;;;;;;4958343;29;19997;-95
2021/01/19 23:51:15;;;;;;;7.78;2.60;;;6.00;99.90;;;;;;4942341;28;20059;-95
2021/01/19 23:53:42;;;;;;;3.70;2.75;;;6.00;99.90;;;;;;4925516;29;20144;-96
2021/01/19 23:56:31;;;;;;;6.03;3.03;;;5.80;99.90;;;;;;4925164;29;20036;-96
2021/01/19 23:58:56;;;;;;;6.25;2.65;;;6.00;99.90;;;;;;4953476;28;20074;-96
